sensor_id;sensor_type;location;lat;lon;timestamp;temperature;humidity
22917;DHT22;11624;53.250;7.456;2023-11-19T00:00:20;15.66;62.41
22917;DHT22;11624;53.250;7.456;2023-11-19T00:02:50;15.66;62.47
22917;DHT22;11624;53.250;7.456;2023-11-19T00:05:18;15.69;62.53
22917;DHT22;11624;53.250;7.456;2023-11-19T00:07:47;15.70;62.68
22917;DHT22;11624;53.250;7.456;2023-11-19T00:10:16;15.70;62.76
22917;DHT22;11624;53.250;7.456;2023-11-19T00:12:47;15.81;62.53
22917;DHT22;11624;53.250;7.456;2023-11-19T00:15:17;15.84;62.58
22917;DHT22;11624;53.250;7.456;2023-11-19T00:17:47;15.86;62.62
22917;DHT22;11624;53.250;7.456;2023-11-19T00:20:18;15.92;62.33
22917;DHT22;11624;53.250;7.456;2023-11-19T00:22:49;16.04;62.50
22917;DHT22;11624;53.250;7.456;2023-11-19T00:25:20;16.02;62.82
22917;DHT22;11624;53.250;7.456;2023-11-19T00:27:50;16.02;62.93
22917;DHT22;11624;53.250;7.456;2023-11-19T00:30:21;16.11;63.15
22917;DHT22;11624;53.250;7.456;2023-11-19T00:32:49;16.16;63.19
22917;DHT22;11624;53.250;7.456;2023-11-19T00:35:19;16.25;63.19
22917;DHT22;11624;53.250;7.456;2023-11-19T00:37:47;16.35;62.98
22917;DHT22;11624;53.250;7.456;2023-11-19T00:40:16;16.64;62.15
22917;DHT22;11624;53.250;7.456;2023-11-19T00:42:45;16.63;62.53
22917;DHT22;11624;53.250;7.456;2023-11-19T00:45:15;16.76;62.35
22917;DHT22;11624;53.250;7.456;2023-11-19T00:47:43;16.80;62.31
22917;DHT22;11624;53.250;7.456;2023-11-19T00:50:11;16.82;62.34
22917;DHT22;11624;53.250;7.456;2023-11-19T00:52:45;16.95;61.92
22917;DHT22;11624;53.250;7.456;2023-11-19T00:55:14;17.00;62.31
22917;DHT22;11624;53.250;7.456;2023-11-19T00:57:43;17.03;62.35
22917;DHT22;11624;53.250;7.456;2023-11-19T01:00:12;17.14;61.99
22917;DHT22;11624;53.250;7.456;2023-11-19T01:02:47;17.11;62.08
22917;DHT22;11624;53.250;7.456;2023-11-19T01:05:19;17.19;62.08
22917;DHT22;11624;53.250;7.456;2023-11-19T01:07:51;17.25;61.89
22917;DHT22;11624;53.250;7.456;2023-11-19T01:10:22;17.31;61.86
22917;DHT22;11624;53.250;7.456;2023-11-19T01:12:51;17.31;62.03
22917;DHT22;11624;53.250;7.456;2023-11-19T01:15:20;17.40;61.83
22917;DHT22;11624;53.250;7.456;2023-11-19T01:17:50;17.36;62.31
22917;DHT22;11624;53.250;7.456;2023-11-19T01:20:20;17.37;62.49
22917;DHT22;11624;53.250;7.456;2023-11-19T01:22:48;17.43;62.45
22917;DHT22;11624;53.250;7.456;2023-11-19T01:25:18;17.47;62.50
22917;DHT22;11624;53.250;7.456;2023-11-19T01:27:47;17.63;62.07
22917;DHT22;11624;53.250;7.456;2023-11-19T01:30:17;17.63;62.15
22917;DHT22;11624;53.250;7.456;2023-11-19T01:32:48;17.73;61.76
22917;DHT22;11624;53.250;7.456;2023-11-19T01:35:17;17.74;62.03
22917;DHT22;11624;53.250;7.456;2023-11-19T01:37:44;17.66;62.34
22917;DHT22;11624;53.250;7.456;2023-11-19T01:40:13;17.55;63.00
22917;DHT22;11624;53.250;7.456;2023-11-19T01:42:44;17.51;63.15
22917;DHT22;11624;53.250;7.456;2023-11-19T01:45:22;17.53;62.67
22917;DHT22;11624;53.250;7.456;2023-11-19T01:47:55;17.61;63.06
22917;DHT22;11624;53.250;7.456;2023-11-19T01:50:24;17.63;62.96
22917;DHT22;11624;53.250;7.456;2023-11-19T01:52:53;17.64;62.89
22917;DHT22;11624;53.250;7.456;2023-11-19T01:55:25;17.65;63.10
22917;DHT22;11624;53.250;7.456;2023-11-19T01:57:59;17.67;62.73
22917;DHT22;11624;53.250;7.456;2023-11-19T02:00:30;17.73;63.28
22917;DHT22;11624;53.250;7.456;2023-11-19T02:03:01;17.81;63.11
22917;DHT22;11624;53.250;7.456;2023-11-19T02:05:31;17.88;62.95
22917;DHT22;11624;53.250;7.456;2023-11-19T02:08:00;17.92;62.99
22917;DHT22;11624;53.250;7.456;2023-11-19T02:10:29;17.96;62.98
22917;DHT22;11624;53.250;7.456;2023-11-19T02:13:01;18.00;62.82
22917;DHT22;11624;53.250;7.456;2023-11-19T02:15:33;18.03;62.89
22917;DHT22;11624;53.250;7.456;2023-11-19T02:18:18;18.05;62.43
22917;DHT22;11624;53.250;7.456;2023-11-19T02:20:46;18.11;62.89
22917;DHT22;11624;53.250;7.456;2023-11-19T02:23:18;18.04;62.96
22917;DHT22;11624;53.250;7.456;2023-11-19T02:25:50;18.07;63.08
22917;DHT22;11624;53.250;7.456;2023-11-19T02:28:21;18.09;62.95
22917;DHT22;11624;53.250;7.456;2023-11-19T02:30:50;18.04;63.15
22917;DHT22;11624;53.250;7.456;2023-11-19T02:33:18;18.11;63.04
22917;DHT22;11624;53.250;7.456;2023-11-19T02:35:47;18.23;62.79
22917;DHT22;11624;53.250;7.456;2023-11-19T02:38:15;18.26;62.71
22917;DHT22;11624;53.250;7.456;2023-11-19T02:40:43;18.27;62.76
22917;DHT22;11624;53.250;7.456;2023-11-19T02:43:12;18.36;62.57
22917;DHT22;11624;53.250;7.456;2023-11-19T02:45:41;18.34;62.50
22917;DHT22;11624;53.250;7.456;2023-11-19T02:48:13;18.39;62.44
22917;DHT22;11624;53.250;7.456;2023-11-19T02:50:42;18.38;62.33
22917;DHT22;11624;53.250;7.456;2023-11-19T02:53:10;18.35;62.61
22917;DHT22;11624;53.250;7.456;2023-11-19T02:55:39;18.36;62.55
22917;DHT22;11624;53.250;7.456;2023-11-19T02:58:08;18.37;62.56
22917;DHT22;11624;53.250;7.456;2023-11-19T03:00:48;18.39;62.53
22917;DHT22;11624;53.250;7.456;2023-11-19T03:03:25;18.38;62.53
22917;DHT22;11624;53.250;7.456;2023-11-19T03:05:58;18.44;62.37
22917;DHT22;11624;53.250;7.456;2023-11-19T03:08:26;18.47;62.28
22917;DHT22;11624;53.250;7.456;2023-11-19T03:10:54;18.44;62.30
22917;DHT22;11624;53.250;7.456;2023-11-19T03:13:23;18.52;62.17
22917;DHT22;11624;53.250;7.456;2023-11-19T03:15:52;18.52;62.20
22917;DHT22;11624;53.250;7.456;2023-11-19T03:18:22;18.56;62.19
22917;DHT22;11624;53.250;7.456;2023-11-19T03:20:50;18.63;61.81
22917;DHT22;11624;53.250;7.456;2023-11-19T03:23:19;18.64;61.57
22917;DHT22;11624;53.250;7.456;2023-11-19T03:25:47;18.67;61.49
22917;DHT22;11624;53.250;7.456;2023-11-19T03:28:16;18.73;61.39
22917;DHT22;11624;53.250;7.456;2023-11-19T03:30:44;18.70;61.35
22917;DHT22;11624;53.250;7.456;2023-11-19T03:33:14;18.67;61.25
22917;DHT22;11624;53.250;7.456;2023-11-19T03:35:42;18.61;61.48
22917;DHT22;11624;53.250;7.456;2023-11-19T03:38:11;18.62;61.44
22917;DHT22;11624;53.250;7.456;2023-11-19T03:40:41;18.67;61.12
22917;DHT22;11624;53.250;7.456;2023-11-19T03:43:09;18.71;60.87
22917;DHT22;11624;53.250;7.456;2023-11-19T03:45:39;18.71;60.80
22917;DHT22;11624;53.250;7.456;2023-11-19T03:48:08;18.80;60.45
22917;DHT22;11624;53.250;7.456;2023-11-19T03:50:38;18.66;60.73
22917;DHT22;11624;53.250;7.456;2023-11-19T03:53:06;18.71;60.67
22917;DHT22;11624;53.250;7.456;2023-11-19T03:55:34;18.72;60.44
22917;DHT22;11624;53.250;7.456;2023-11-19T03:58:03;18.74;60.46
22917;DHT22;11624;53.250;7.456;2023-11-19T04:00:32;18.77;59.99
22917;DHT22;11624;53.250;7.456;2023-11-19T04:03:01;18.72;60.15
22917;DHT22;11624;53.250;7.456;2023-11-19T04:05:30;18.71;60.09
22917;DHT22;11624;53.250;7.456;2023-11-19T04:07:59;18.78;59.41
22917;DHT22;11624;53.250;7.456;2023-11-19T04:10:28;18.82;59.49
22917;DHT22;11624;53.250;7.456;2023-11-19T04:12:56;18.78;59.60
22917;DHT22;11624;53.250;7.456;2023-11-19T04:15:25;18.79;59.27
22917;DHT22;11624;53.250;7.456;2023-11-19T04:17:53;18.84;59.16
22917;DHT22;11624;53.250;7.456;2023-11-19T04:20:22;18.87;59.12
22917;DHT22;11624;53.250;7.456;2023-11-19T04:22:50;18.86;59.12
22917;DHT22;11624;53.250;7.456;2023-11-19T04:25:22;18.82;59.17
22917;DHT22;11624;53.250;7.456;2023-11-19T04:27:53;18.84;59.22
22917;DHT22;11624;53.250;7.456;2023-11-19T04:30:21;18.87;58.96
22917;DHT22;11624;53.250;7.456;2023-11-19T04:32:50;18.83;58.92
22917;DHT22;11624;53.250;7.456;2023-11-19T04:35:18;18.68;59.34
22917;DHT22;11624;53.250;7.456;2023-11-19T04:37:47;18.78;59.07
22917;DHT22;11624;53.250;7.456;2023-11-19T04:40:16;18.77;58.92
22917;DHT22;11624;53.250;7.456;2023-11-19T04:42:47;18.70;58.99
22917;DHT22;11624;53.250;7.456;2023-11-19T04:45:15;18.79;58.90
22917;DHT22;11624;53.250;7.456;2023-11-19T04:47:43;18.81;58.77
22917;DHT22;11624;53.250;7.456;2023-11-19T04:50:12;18.78;58.64
22917;DHT22;11624;53.250;7.456;2023-11-19T04:52:40;18.74;58.62
22917;DHT22;11624;53.250;7.456;2023-11-19T04:55:09;18.72;58.64
22917;DHT22;11624;53.250;7.456;2023-11-19T04:57:39;18.76;58.41
22917;DHT22;11624;53.250;7.456;2023-11-19T05:00:10;18.70;58.47
22917;DHT22;11624;53.250;7.456;2023-11-19T05:02:42;18.71;58.46
22917;DHT22;11624;53.250;7.456;2023-11-19T05:05:10;18.74;58.11
22917;DHT22;11624;53.250;7.456;2023-11-19T05:07:39;18.74;57.92
22917;DHT22;11624;53.250;7.456;2023-11-19T05:10:08;18.71;58.01
22917;DHT22;11624;53.250;7.456;2023-11-19T05:12:36;18.69;58.11
22917;DHT22;11624;53.250;7.456;2023-11-19T05:15:06;18.66;58.06
22917;DHT22;11624;53.250;7.456;2023-11-19T05:17:36;18.69;57.73
22917;DHT22;11624;53.250;7.456;2023-11-19T05:20:06;18.69;57.77
22917;DHT22;11624;53.250;7.456;2023-11-19T05:22:40;18.66;57.85
22917;DHT22;11624;53.250;7.456;2023-11-19T05:25:09;18.67;57.78
22917;DHT22;11624;53.250;7.456;2023-11-19T05:27:38;18.63;57.85
22917;DHT22;11624;53.250;7.456;2023-11-19T05:30:07;18.54;58.03
22917;DHT22;11624;53.250;7.456;2023-11-19T05:32:39;18.53;58.08
22917;DHT22;11624;53.250;7.456;2023-11-19T05:35:08;18.53;58.09
22917;DHT22;11624;53.250;7.456;2023-11-19T05:37:36;18.56;58.06
22917;DHT22;11624;53.250;7.456;2023-11-19T05:40:06;18.52;58.03
22917;DHT22;11624;53.250;7.456;2023-11-19T05:42:42;18.43;58.18
22917;DHT22;11624;53.250;7.456;2023-11-19T05:45:11;18.49;57.99
22917;DHT22;11624;53.250;7.456;2023-11-19T05:47:42;18.46;57.87
22917;DHT22;11624;53.250;7.456;2023-11-19T05:50:11;18.39;57.77
22917;DHT22;11624;53.250;7.456;2023-11-19T05:52:39;18.48;57.81
22917;DHT22;11624;53.250;7.456;2023-11-19T05:55:08;18.51;57.71
22917;DHT22;11624;53.250;7.456;2023-11-19T05:57:38;18.54;57.52
22917;DHT22;11624;53.250;7.456;2023-11-19T06:00:10;18.51;57.58
22917;DHT22;11624;53.250;7.456;2023-11-19T06:02:41;18.48;57.59
22917;DHT22;11624;53.250;7.456;2023-11-19T06:05:10;18.43;57.78
22917;DHT22;11624;53.250;7.456;2023-11-19T06:07:39;18.54;57.48
22917;DHT22;11624;53.250;7.456;2023-11-19T06:10:09;18.51;57.52
22917;DHT22;11624;53.250;7.456;2023-11-19T06:12:39;18.53;57.41
22917;DHT22;11624;53.250;7.456;2023-11-19T06:15:09;18.53;57.17
22917;DHT22;11624;53.250;7.456;2023-11-19T06:17:38;18.48;57.27
22917;DHT22;11624;53.250;7.456;2023-11-19T06:20:09;18.40;57.12
22917;DHT22;11624;53.250;7.456;2023-11-19T06:22:39;18.38;57.42
22917;DHT22;11624;53.250;7.456;2023-11-19T06:25:09;18.32;57.43
22917;DHT22;11624;53.250;7.456;2023-11-19T06:27:38;18.29;57.32
22917;DHT22;11624;53.250;7.456;2023-11-19T06:30:07;18.26;57.31
22917;DHT22;11624;53.250;7.456;2023-11-19T06:32:36;18.23;57.42
22917;DHT22;11624;53.250;7.456;2023-11-19T06:35:05;18.21;57.47
22917;DHT22;11624;53.250;7.456;2023-11-19T06:37:35;18.26;57.13
22917;DHT22;11624;53.250;7.456;2023-11-19T06:40:04;18.20;57.22
22917;DHT22;11624;53.250;7.456;2023-11-19T06:42:33;18.09;57.08
22917;DHT22;11624;53.250;7.456;2023-11-19T06:45:01;18.14;57.05
22917;DHT22;11624;53.250;7.456;2023-11-19T06:47:30;18.13;56.90
22917;DHT22;11624;53.250;7.456;2023-11-19T06:49:58;18.14;56.74
22917;DHT22;11624;53.250;7.456;2023-11-19T06:52:26;18.11;56.74
22917;DHT22;11624;53.250;7.456;2023-11-19T06:54:56;17.98;56.76
22917;DHT22;11624;53.250;7.456;2023-11-19T06:57:27;17.94;56.93
22917;DHT22;11624;53.250;7.456;2023-11-19T06:59:57;17.98;56.88
22917;DHT22;11624;53.250;7.456;2023-11-19T07:02:25;18.03;56.63
22917;DHT22;11624;53.250;7.456;2023-11-19T07:04:54;17.97;56.80
22917;DHT22;11624;53.250;7.456;2023-11-19T07:07:22;17.96;56.91
22917;DHT22;11624;53.250;7.456;2023-11-19T07:09:51;17.95;56.77
22917;DHT22;11624;53.250;7.456;2023-11-19T07:12:20;17.95;56.92
22917;DHT22;11624;53.250;7.456;2023-11-19T07:14:49;17.96;56.85
22917;DHT22;11624;53.250;7.456;2023-11-19T07:17:18;17.92;57.00
22917;DHT22;11624;53.250;7.456;2023-11-19T07:19:49;17.90;56.87
22917;DHT22;11624;53.250;7.456;2023-11-19T07:22:17;17.92;56.78
22917;DHT22;11624;53.250;7.456;2023-11-19T07:24:45;17.89;56.93
22917;DHT22;11624;53.250;7.456;2023-11-19T07:27:14;17.93;56.78
22917;DHT22;11624;53.250;7.456;2023-11-19T07:29:45;17.93;56.68
22917;DHT22;11624;53.250;7.456;2023-11-19T07:32:13;17.92;56.77
22917;DHT22;11624;53.250;7.456;2023-11-19T07:34:42;17.91;56.73
22917;DHT22;11624;53.250;7.456;2023-11-19T07:37:11;17.94;56.62
22917;DHT22;11624;53.250;7.456;2023-11-19T07:39:39;17.94;56.76
22917;DHT22;11624;53.250;7.456;2023-11-19T07:42:09;17.93;56.94
22917;DHT22;11624;53.250;7.456;2023-11-19T07:44:37;17.78;57.50
22917;DHT22;11624;53.250;7.456;2023-11-19T07:47:07;17.69;57.85
22917;DHT22;11624;53.250;7.456;2023-11-19T07:49:35;17.67;57.91
22917;DHT22;11624;53.250;7.456;2023-11-19T07:52:04;17.70;57.80
22917;DHT22;11624;53.250;7.456;2023-11-19T07:54:47;17.70;57.93
22917;DHT22;11624;53.250;7.456;2023-11-19T07:57:16;17.73;57.91
22917;DHT22;11624;53.250;7.456;2023-11-19T07:59:44;17.78;57.85
22917;DHT22;11624;53.250;7.456;2023-11-19T08:02:14;17.80;57.69
22917;DHT22;11624;53.250;7.456;2023-11-19T08:04:42;17.76;57.74
22917;DHT22;11624;53.250;7.456;2023-11-19T08:07:13;17.69;57.99
22917;DHT22;11624;53.250;7.456;2023-11-19T08:09:41;17.66;58.16
22917;DHT22;11624;53.250;7.456;2023-11-19T08:12:10;17.65;58.34
22917;DHT22;11624;53.250;7.456;2023-11-19T08:14:38;17.74;58.30
22917;DHT22;11624;53.250;7.456;2023-11-19T08:17:06;17.76;58.29
22917;DHT22;11624;53.250;7.456;2023-11-19T08:19:36;17.76;58.22
22917;DHT22;11624;53.250;7.456;2023-11-19T08:22:04;17.75;58.29
22917;DHT22;11624;53.250;7.456;2023-11-19T08:24:33;17.73;58.33
22917;DHT22;11624;53.250;7.456;2023-11-19T08:27:01;17.68;58.56
22917;DHT22;11624;53.250;7.456;2023-11-19T08:29:30;17.70;58.61
22917;DHT22;11624;53.250;7.456;2023-11-19T08:32:00;17.75;58.66
22917;DHT22;11624;53.250;7.456;2023-11-19T08:34:29;17.87;58.65
22917;DHT22;11624;53.250;7.456;2023-11-19T08:36:59;17.89;58.38
22917;DHT22;11624;53.250;7.456;2023-11-19T08:39:27;17.97;58.16
22917;DHT22;11624;53.250;7.456;2023-11-19T08:41:57;17.97;57.60
22917;DHT22;11624;53.250;7.456;2023-11-19T08:44:26;18.07;57.55
22917;DHT22;11624;53.250;7.456;2023-11-19T08:46:54;18.02;57.58
22917;DHT22;11624;53.250;7.456;2023-11-19T08:49:24;18.06;57.50
22917;DHT22;11624;53.250;7.456;2023-11-19T08:51:52;18.08;57.14
22917;DHT22;11624;53.250;7.456;2023-11-19T08:54:22;18.05;57.10
22917;DHT22;11624;53.250;7.456;2023-11-19T08:56:50;18.02;56.96
22917;DHT22;11624;53.250;7.456;2023-11-19T08:59:19;18.05;57.04
22917;DHT22;11624;53.250;7.456;2023-11-19T09:01:47;18.07;56.97
22917;DHT22;11624;53.250;7.456;2023-11-19T09:04:15;18.13;56.68
22917;DHT22;11624;53.250;7.456;2023-11-19T09:06:44;18.09;56.68
22917;DHT22;11624;53.250;7.456;2023-11-19T09:09:12;18.03;56.68
22917;DHT22;11624;53.250;7.456;2023-11-19T09:11:42;17.98;56.77
22917;DHT22;11624;53.250;7.456;2023-11-19T09:14:11;17.94;57.08
22917;DHT22;11624;53.250;7.456;2023-11-19T09:16:40;17.96;57.38
22917;DHT22;11624;53.250;7.456;2023-11-19T09:19:08;17.92;57.45
22917;DHT22;11624;53.250;7.456;2023-11-19T09:21:36;17.93;57.34
22917;DHT22;11624;53.250;7.456;2023-11-19T09:24:06;17.88;57.46
22917;DHT22;11624;53.250;7.456;2023-11-19T09:26:35;17.85;57.55
22917;DHT22;11624;53.250;7.456;2023-11-19T09:29:08;17.85;57.74
22917;DHT22;11624;53.250;7.456;2023-11-19T09:31:38;17.82;58.05
22917;DHT22;11624;53.250;7.456;2023-11-19T09:34:06;17.80;58.40
22917;DHT22;11624;53.250;7.456;2023-11-19T09:36:35;17.81;58.84
22917;DHT22;11624;53.250;7.456;2023-11-19T09:39:03;17.84;58.82
22917;DHT22;11624;53.250;7.456;2023-11-19T09:41:32;17.89;58.63
22917;DHT22;11624;53.250;7.456;2023-11-19T09:44:01;17.95;58.40
22917;DHT22;11624;53.250;7.456;2023-11-19T09:46:31;17.95;58.08
22917;DHT22;11624;53.250;7.456;2023-11-19T09:49:01;17.92;58.20
22917;DHT22;11624;53.250;7.456;2023-11-19T09:51:31;17.94;58.37
22917;DHT22;11624;53.250;7.456;2023-11-19T09:53:59;17.92;58.25
22917;DHT22;11624;53.250;7.456;2023-11-19T09:56:29;18.03;58.03
22917;DHT22;11624;53.250;7.456;2023-11-19T09:58:58;18.02;57.71
22917;DHT22;11624;53.250;7.456;2023-11-19T10:01:27;17.98;57.77
22917;DHT22;11624;53.250;7.456;2023-11-19T10:03:57;17.97;57.55
22917;DHT22;11624;53.250;7.456;2023-11-19T10:06:26;18.02;58.04
22917;DHT22;11624;53.250;7.456;2023-11-19T10:08:55;18.09;58.19
22917;DHT22;11624;53.250;7.456;2023-11-19T10:11:23;18.15;58.01
22917;DHT22;11624;53.250;7.456;2023-11-19T10:13:53;18.14;57.76
22917;DHT22;11624;53.250;7.456;2023-11-19T10:16:28;18.23;57.44
22917;DHT22;11624;53.250;7.456;2023-11-19T10:18:58;18.27;57.52
22917;DHT22;11624;53.250;7.456;2023-11-19T10:21:27;18.28;57.45
22917;DHT22;11624;53.250;7.456;2023-11-19T10:23:56;18.44;57.42
22917;DHT22;11624;53.250;7.456;2023-11-19T10:26:27;18.50;56.84
22917;DHT22;11624;53.250;7.456;2023-11-19T10:28:56;18.52;56.70
22917;DHT22;11624;53.250;7.456;2023-11-19T10:31:25;18.47;56.74
22917;DHT22;11624;53.250;7.456;2023-11-19T10:33:53;18.48;56.79
22917;DHT22;11624;53.250;7.456;2023-11-19T10:36:37;18.36;56.54
22917;DHT22;11624;53.250;7.456;2023-11-19T10:39:05;18.35;56.72
22917;DHT22;11624;53.250;7.456;2023-11-19T10:41:36;18.29;56.76
22917;DHT22;11624;53.250;7.456;2023-11-19T10:44:04;18.27;56.74
22917;DHT22;11624;53.250;7.456;2023-11-19T10:46:37;18.24;56.26
22917;DHT22;11624;53.250;7.456;2023-11-19T10:49:07;18.29;56.52
22917;DHT22;11624;53.250;7.456;2023-11-19T10:51:39;18.35;56.26
22917;DHT22;11624;53.250;7.456;2023-11-19T10:54:15;18.36;56.32
22917;DHT22;11624;53.250;7.456;2023-11-19T10:56:49;18.46;56.37
22917;DHT22;11624;53.250;7.456;2023-11-19T10:59:20;18.55;56.15
22917;DHT22;11624;53.250;7.456;2023-11-19T11:01:53;18.61;56.03
22917;DHT22;11624;53.250;7.456;2023-11-19T11:04:24;18.58;55.89
22917;DHT22;11624;53.250;7.456;2023-11-19T11:06:55;18.58;55.97
22917;DHT22;11624;53.250;7.456;2023-11-19T11:09:26;18.58;55.90
22917;DHT22;11624;53.250;7.456;2023-11-19T11:11:56;18.54;56.03
22917;DHT22;11624;53.250;7.456;2023-11-19T11:14:27;18.57;55.71
22917;DHT22;11624;53.250;7.456;2023-11-19T11:16:56;18.55;56.00
22917;DHT22;11624;53.250;7.456;2023-11-19T11:19:26;18.61;56.55
22917;DHT22;11624;53.250;7.456;2023-11-19T11:21:56;18.78;56.11
22917;DHT22;11624;53.250;7.456;2023-11-19T11:25:00;18.84;55.45
22917;DHT22;11624;53.250;7.456;2023-11-19T11:27:52;18.95;55.50
22917;DHT22;11624;53.250;7.456;2023-11-19T11:30:31;18.98;55.23
22917;DHT22;11624;53.250;7.456;2023-11-19T11:33:15;18.84;54.98
22917;DHT22;11624;53.250;7.456;2023-11-19T11:35:53;18.79;55.67
22917;DHT22;11624;53.250;7.456;2023-11-19T11:38:25;18.69;56.05
22917;DHT22;11624;53.250;7.456;2023-11-19T11:41:16;18.67;55.61
22917;DHT22;11624;53.250;7.456;2023-11-19T11:43:50;18.67;55.70
22917;DHT22;11624;53.250;7.456;2023-11-19T11:46:55;18.70;55.59
22917;DHT22;11624;53.250;7.456;2023-11-19T11:49:28;18.99;56.85
22917;DHT22;11624;53.250;7.456;2023-11-19T11:52:02;19.41;56.08
22917;DHT22;11624;53.250;7.456;2023-11-19T11:54:35;19.66;55.02
22917;DHT22;11624;53.250;7.456;2023-11-19T11:57:08;19.57;54.09
22917;DHT22;11624;53.250;7.456;2023-11-19T11:59:45;19.36;53.86
22917;DHT22;11624;53.250;7.456;2023-11-19T12:02:15;19.17;54.71
22917;DHT22;11624;53.250;7.456;2023-11-19T12:04:47;19.03;55.09
22917;DHT22;11624;53.250;7.456;2023-11-19T12:07:18;19.32;56.89
22917;DHT22;11624;53.250;7.456;2023-11-19T12:09:51;19.89;55.17
22917;DHT22;11624;53.250;7.456;2023-11-19T12:12:23;20.36;53.43
22917;DHT22;11624;53.250;7.456;2023-11-19T12:15:02;20.56;51.40
22917;DHT22;11624;53.250;7.456;2023-11-19T12:17:43;20.64;51.29
22917;DHT22;11624;53.250;7.456;2023-11-19T12:20:17;20.84;50.98
22917;DHT22;11624;53.250;7.456;2023-11-19T12:22:49;20.93;50.11
22917;DHT22;11624;53.250;7.456;2023-11-19T12:25:20;20.75;50.64
22917;DHT22;11624;53.250;7.456;2023-11-19T12:27:50;20.71;50.86
22917;DHT22;11624;53.250;7.456;2023-11-19T12:30:22;20.44;51.01
22917;DHT22;11624;53.250;7.456;2023-11-19T12:32:51;20.30;52.44
22917;DHT22;11624;53.250;7.456;2023-11-19T12:35:21;20.27;52.40
22917;DHT22;11624;53.250;7.456;2023-11-19T12:37:51;20.09;52.36
22917;DHT22;11624;53.250;7.456;2023-11-19T12:40:23;20.12;53.26
22917;DHT22;11624;53.250;7.456;2023-11-19T12:42:53;20.12;52.17
22917;DHT22;11624;53.250;7.456;2023-11-19T12:45:22;19.83;52.11
22917;DHT22;11624;53.250;7.456;2023-11-19T12:48:04;19.47;52.27
22917;DHT22;11624;53.250;7.456;2023-11-19T12:50:51;19.17;53.17
22917;DHT22;11624;53.250;7.456;2023-11-19T12:53:20;18.94;54.01
22917;DHT22;11624;53.250;7.456;2023-11-19T12:55:50;18.74;54.43
22917;DHT22;11624;53.250;7.456;2023-11-19T12:58:29;18.64;55.14
22917;DHT22;11624;53.250;7.456;2023-11-19T13:01:01;18.69;55.33
22917;DHT22;11624;53.250;7.456;2023-11-19T13:03:31;18.96;56.48
22917;DHT22;11624;53.250;7.456;2023-11-19T13:06:03;19.53;54.81
22917;DHT22;11624;53.250;7.456;2023-11-19T13:08:39;20.02;53.49
22917;DHT22;11624;53.250;7.456;2023-11-19T13:11:09;20.54;53.14
22917;DHT22;11624;53.250;7.456;2023-11-19T13:13:57;21.03;50.40
22917;DHT22;11624;53.250;7.456;2023-11-19T13:16:27;21.31;50.56
22917;DHT22;11624;53.250;7.456;2023-11-19T13:18:56;21.58;48.89
22917;DHT22;11624;53.250;7.456;2023-11-19T13:21:26;21.40;48.02
22917;DHT22;11624;53.250;7.456;2023-11-19T13:23:54;21.02;48.41
22917;DHT22;11624;53.250;7.456;2023-11-19T13:26:24;20.73;49.22
22917;DHT22;11624;53.250;7.456;2023-11-19T13:28:53;20.39;49.99
22917;DHT22;11624;53.250;7.456;2023-11-19T13:31:21;20.12;50.88
22917;DHT22;11624;53.250;7.456;2023-11-19T13:33:50;20.02;51.39
22917;DHT22;11624;53.250;7.456;2023-11-19T13:36:18;19.91;51.82
22917;DHT22;11624;53.250;7.456;2023-11-19T13:38:46;19.75;52.49
22917;DHT22;11624;53.250;7.456;2023-11-19T13:41:15;19.71;52.57
22917;DHT22;11624;53.250;7.456;2023-11-19T13:43:45;19.70;52.94
22917;DHT22;11624;53.250;7.456;2023-11-19T13:46:14;19.68;53.07
22917;DHT22;11624;53.250;7.456;2023-11-19T13:48:42;19.62;53.34
22917;DHT22;11624;53.250;7.456;2023-11-19T13:51:10;19.61;53.32
22917;DHT22;11624;53.250;7.456;2023-11-19T13:53:39;19.56;53.52
22917;DHT22;11624;53.250;7.456;2023-11-19T13:56:10;19.43;53.75
22917;DHT22;11624;53.250;7.456;2023-11-19T13:58:38;19.39;53.59
22917;DHT22;11624;53.250;7.456;2023-11-19T14:01:08;19.21;53.92
22917;DHT22;11624;53.250;7.456;2023-11-19T14:03:40;19.03;54.34
22917;DHT22;11624;53.250;7.456;2023-11-19T14:06:09;18.95;54.63
22917;DHT22;11624;53.250;7.456;2023-11-19T14:08:37;18.92;54.84
22917;DHT22;11624;53.250;7.456;2023-11-19T14:11:06;18.82;55.16
22917;DHT22;11624;53.250;7.456;2023-11-19T14:13:34;18.72;55.58
22917;DHT22;11624;53.250;7.456;2023-11-19T14:16:03;18.63;55.91
22917;DHT22;11624;53.250;7.456;2023-11-19T14:18:34;18.49;56.21
22917;DHT22;11624;53.250;7.456;2023-11-19T14:21:03;18.43;56.64
22917;DHT22;11624;53.250;7.456;2023-11-19T14:23:31;18.46;56.68
22917;DHT22;11624;53.250;7.456;2023-11-19T14:26:00;18.40;56.74
22917;DHT22;11624;53.250;7.456;2023-11-19T14:28:29;18.32;57.22
22917;DHT22;11624;53.250;7.456;2023-11-19T14:30:58;18.23;57.63
22917;DHT22;11624;53.250;7.456;2023-11-19T14:33:26;18.26;57.55
22917;DHT22;11624;53.250;7.456;2023-11-19T14:35:56;18.27;57.43
22917;DHT22;11624;53.250;7.456;2023-11-19T14:38:25;18.21;57.75
22917;DHT22;11624;53.250;7.456;2023-11-19T14:40:53;18.21;57.61
22917;DHT22;11624;53.250;7.456;2023-11-19T14:43:21;18.11;57.88
22917;DHT22;11624;53.250;7.456;2023-11-19T14:45:51;18.05;58.10
22917;DHT22;11624;53.250;7.456;2023-11-19T14:48:21;17.96;58.40
22917;DHT22;11624;53.250;7.456;2023-11-19T14:50:50;17.95;58.54
22917;DHT22;11624;53.250;7.456;2023-11-19T14:53:20;18.03;58.50
22917;DHT22;11624;53.250;7.456;2023-11-19T14:55:49;17.94;58.81
22917;DHT22;11624;53.250;7.456;2023-11-19T14:58:17;17.91;58.85
22917;DHT22;11624;53.250;7.456;2023-11-19T15:00:46;17.88;58.88
22917;DHT22;11624;53.250;7.456;2023-11-19T15:03:14;17.79;59.14
22917;DHT22;11624;53.250;7.456;2023-11-19T15:05:46;17.76;59.19
22917;DHT22;11624;53.250;7.456;2023-11-19T15:08:14;17.70;59.39
22917;DHT22;11624;53.250;7.456;2023-11-19T15:10:45;17.75;59.22
22917;DHT22;11624;53.250;7.456;2023-11-19T15:13:14;17.68;59.53
22917;DHT22;11624;53.250;7.456;2023-11-19T15:15:42;17.66;59.58
22917;DHT22;11624;53.250;7.456;2023-11-19T15:18:10;17.70;59.44
22917;DHT22;11624;53.250;7.456;2023-11-19T15:20:39;17.68;59.55
22917;DHT22;11624;53.250;7.456;2023-11-19T15:23:07;17.67;59.38
22917;DHT22;11624;53.250;7.456;2023-11-19T15:25:36;17.66;59.48
22917;DHT22;11624;53.250;7.456;2023-11-19T15:28:06;17.59;59.64
22917;DHT22;11624;53.250;7.456;2023-11-19T15:30:34;17.56;59.70
22917;DHT22;11624;53.250;7.456;2023-11-19T15:33:03;17.60;59.64
22917;DHT22;11624;53.250;7.456;2023-11-19T15:35:31;17.58;59.75
22917;DHT22;11624;53.250;7.456;2023-11-19T15:38:00;17.56;59.76
22917;DHT22;11624;53.250;7.456;2023-11-19T15:40:28;17.55;59.83
22917;DHT22;11624;53.250;7.456;2023-11-19T15:42:56;17.56;59.82
22917;DHT22;11624;53.250;7.456;2023-11-19T15:45:27;17.54;59.83
22917;DHT22;11624;53.250;7.456;2023-11-19T15:47:55;17.51;59.91